sensor_id;sensor_type;location;lat;lon;timestamp;P1;durP1;ratioP1;P2;durP2;ratioP2
24407;SDS011;12542;50.924;4.516;2023-04-19T00:02:06;28.98;;;19.10;;
24407;SDS011;12542;50.924;4.516;2023-04-19T00:04:33;30.45;;;19.73;;
24407;SDS011;12542;50.924;4.516;2023-04-19T00:06:58;32.78;;;20.10;;
24407;SDS011;12542;50.924;4.516;2023-04-19T00:09:24;33.53;;;21.85;;
24407;SDS011;12542;50.924;4.516;2023-04-19T00:11:51;31.80;;;20.58;;
24407;SDS011;12542;50.924;4.516;2023-04-19T00:14:17;34.25;;;21.30;;
24407;SDS011;12542;50.924;4.516;2023-04-19T00:16:42;39.80;;;22.63;;
24407;SDS011;12542;50.924;4.516;2023-04-19T00:19:08;32.40;;;21.50;;
24407;SDS011;12542;50.924;4.516;2023-04-19T00:21:35;30.90;;;21.35;;
24407;SDS011;12542;50.924;4.516;2023-04-19T00:24:01;31.65;;;20.45;;
24407;SDS011;12542;50.924;4.516;2023-04-19T00:26:27;30.48;;;20.55;;
24407;SDS011;12542;50.924;4.516;2023-04-19T00:28:53;36.45;;;21.88;;
24407;SDS011;12542;50.924;4.516;2023-04-19T00:31:18;34.05;;;22.25;;
24407;SDS011;12542;50.924;4.516;2023-04-19T00:33:44;31.80;;;21.80;;
24407;SDS011;12542;50.924;4.516;2023-04-19T00:36:10;37.50;;;22.10;;
24407;SDS011;12542;50.924;4.516;2023-04-19T00:38:35;36.63;;;22.52;;
24407;SDS011;12542;50.924;4.516;2023-04-19T00:41:01;31.85;;;21.35;;
24407;SDS011;12542;50.924;4.516;2023-04-19T00:43:27;33.53;;;21.90;;
24407;SDS011;12542;50.924;4.516;2023-04-19T00:45:53;34.92;;;22.27;;
24407;SDS011;12542;50.924;4.516;2023-04-19T00:48:18;36.00;;;22.17;;
24407;SDS011;12542;50.924;4.516;2023-04-19T00:50:44;32.92;;;21.73;;
24407;SDS011;12542;50.924;4.516;2023-04-19T00:53:10;33.67;;;21.90;;
24407;SDS011;12542;50.924;4.516;2023-04-19T00:55:39;36.42;;;21.80;;
24407;SDS011;12542;50.924;4.516;2023-04-19T00:58:06;34.53;;;21.30;;
24407;SDS011;12542;50.924;4.516;2023-04-19T01:00:34;34.30;;;21.38;;
24407;SDS011;12542;50.924;4.516;2023-04-19T01:03:02;33.40;;;21.52;;
24407;SDS011;12542;50.924;4.516;2023-04-19T01:05:28;36.45;;;22.55;;
24407;SDS011;12542;50.924;4.516;2023-04-19T01:07:55;37.25;;;23.05;;
24407;SDS011;12542;50.924;4.516;2023-04-19T01:10:21;37.97;;;22.40;;
24407;SDS011;12542;50.924;4.516;2023-04-19T01:12:47;37.45;;;22.27;;
24407;SDS011;12542;50.924;4.516;2023-04-19T01:15:12;39.92;;;22.25;;
24407;SDS011;12542;50.924;4.516;2023-04-19T01:17:38;35.80;;;22.48;;
24407;SDS011;12542;50.924;4.516;2023-04-19T01:20:05;36.90;;;22.95;;
24407;SDS011;12542;50.924;4.516;2023-04-19T01:22:32;33.47;;;21.27;;
24407;SDS011;12542;50.924;4.516;2023-04-19T01:24:58;39.72;;;24.20;;
24407;SDS011;12542;50.924;4.516;2023-04-19T01:27:25;32.88;;;21.25;;
24407;SDS011;12542;50.924;4.516;2023-04-19T01:29:51;32.35;;;21.27;;
24407;SDS011;12542;50.924;4.516;2023-04-19T01:32:19;33.03;;;21.88;;
24407;SDS011;12542;50.924;4.516;2023-04-19T01:34:45;37.50;;;22.83;;
24407;SDS011;12542;50.924;4.516;2023-04-19T01:37:12;36.40;;;22.50;;
24407;SDS011;12542;50.924;4.516;2023-04-19T01:39:37;32.67;;;21.42;;
24407;SDS011;12542;50.924;4.516;2023-04-19T01:42:03;33.95;;;21.80;;
24407;SDS011;12542;50.924;4.516;2023-04-19T01:44:29;33.90;;;22.30;;
24407;SDS011;12542;50.924;4.516;2023-04-19T01:46:57;35.90;;;23.00;;
24407;SDS011;12542;50.924;4.516;2023-04-19T01:49:23;32.25;;;21.75;;
24407;SDS011;12542;50.924;4.516;2023-04-19T01:51:49;34.05;;;21.40;;
24407;SDS011;12542;50.924;4.516;2023-04-19T01:54:14;35.33;;;23.08;;
24407;SDS011;12542;50.924;4.516;2023-04-19T01:56:40;33.80;;;22.45;;
24407;SDS011;12542;50.924;4.516;2023-04-19T01:59:06;40.65;;;22.77;;
24407;SDS011;12542;50.924;4.516;2023-04-19T02:01:31;32.85;;;22.05;;
24407;SDS011;12542;50.924;4.516;2023-04-19T02:03:57;30.60;;;20.52;;
24407;SDS011;12542;50.924;4.516;2023-04-19T02:06:23;33.97;;;21.58;;
24407;SDS011;12542;50.924;4.516;2023-04-19T02:08:49;33.38;;;21.77;;
24407;SDS011;12542;50.924;4.516;2023-04-19T02:11:14;33.10;;;20.25;;
24407;SDS011;12542;50.924;4.516;2023-04-19T02:13:40;32.33;;;20.58;;
24407;SDS011;12542;50.924;4.516;2023-04-19T02:16:07;31.75;;;21.35;;
24407;SDS011;12542;50.924;4.516;2023-04-19T02:18:33;34.13;;;22.13;;
24407;SDS011;12542;50.924;4.516;2023-04-19T02:21:05;31.48;;;20.40;;
24407;SDS011;12542;50.924;4.516;2023-04-19T02:23:32;34.42;;;22.08;;
24407;SDS011;12542;50.924;4.516;2023-04-19T02:25:58;35.08;;;20.30;;
24407;SDS011;12542;50.924;4.516;2023-04-19T02:28:29;35.60;;;22.02;;
24407;SDS011;12542;50.924;4.516;2023-04-19T02:30:55;34.40;;;21.77;;
24407;SDS011;12542;50.924;4.516;2023-04-19T02:33:21;35.45;;;22.50;;
24407;SDS011;12542;50.924;4.516;2023-04-19T02:35:48;31.13;;;19.65;;
24407;SDS011;12542;50.924;4.516;2023-04-19T02:38:13;34.38;;;19.50;;
24407;SDS011;12542;50.924;4.516;2023-04-19T02:40:39;33.92;;;21.90;;
24407;SDS011;12542;50.924;4.516;2023-04-19T02:43:05;34.17;;;19.70;;
24407;SDS011;12542;50.924;4.516;2023-04-19T02:45:30;33.55;;;20.00;;
24407;SDS011;12542;50.924;4.516;2023-04-19T02:47:56;32.53;;;21.50;;
24407;SDS011;12542;50.924;4.516;2023-04-19T02:50:23;38.90;;;20.98;;
24407;SDS011;12542;50.924;4.516;2023-04-19T02:52:53;32.05;;;20.30;;
24407;SDS011;12542;50.924;4.516;2023-04-19T02:55:19;31.63;;;20.52;;
24407;SDS011;12542;50.924;4.516;2023-04-19T02:57:45;30.05;;;19.55;;
24407;SDS011;12542;50.924;4.516;2023-04-19T03:00:10;27.85;;;18.50;;
24407;SDS011;12542;50.924;4.516;2023-04-19T03:02:36;30.65;;;19.98;;
24407;SDS011;12542;50.924;4.516;2023-04-19T03:05:03;31.63;;;20.80;;
24407;SDS011;12542;50.924;4.516;2023-04-19T03:07:30;32.80;;;19.75;;
24407;SDS011;12542;50.924;4.516;2023-04-19T03:09:56;29.67;;;19.65;;
24407;SDS011;12542;50.924;4.516;2023-04-19T03:12:21;31.08;;;21.10;;
24407;SDS011;12542;50.924;4.516;2023-04-19T03:14:47;30.52;;;19.63;;
24407;SDS011;12542;50.924;4.516;2023-04-19T03:17:13;33.08;;;20.20;;
24407;SDS011;12542;50.924;4.516;2023-04-19T03:19:39;35.88;;;21.00;;
24407;SDS011;12542;50.924;4.516;2023-04-19T03:22:05;33.42;;;20.85;;
24407;SDS011;12542;50.924;4.516;2023-04-19T03:24:30;33.85;;;20.17;;
24407;SDS011;12542;50.924;4.516;2023-04-19T03:26:56;29.02;;;19.15;;
24407;SDS011;12542;50.924;4.516;2023-04-19T03:29:22;28.80;;;18.38;;
24407;SDS011;12542;50.924;4.516;2023-04-19T03:31:48;29.73;;;19.45;;
24407;SDS011;12542;50.924;4.516;2023-04-19T03:34:14;27.77;;;18.77;;
24407;SDS011;12542;50.924;4.516;2023-04-19T03:36:40;31.50;;;18.85;;
24407;SDS011;12542;50.924;4.516;2023-04-19T03:39:06;29.67;;;20.13;;
24407;SDS011;12542;50.924;4.516;2023-04-19T03:41:32;29.23;;;18.63;;
24407;SDS011;12542;50.924;4.516;2023-04-19T03:43:58;28.63;;;18.75;;
24407;SDS011;12542;50.924;4.516;2023-04-19T03:46:24;31.48;;;18.90;;
24407;SDS011;12542;50.924;4.516;2023-04-19T03:48:50;27.23;;;18.80;;
24407;SDS011;12542;50.924;4.516;2023-04-19T03:51:16;32.90;;;18.15;;
24407;SDS011;12542;50.924;4.516;2023-04-19T03:53:42;27.63;;;17.42;;
24407;SDS011;12542;50.924;4.516;2023-04-19T03:56:08;28.60;;;19.30;;
24407;SDS011;12542;50.924;4.516;2023-04-19T03:58:33;29.42;;;19.23;;
24407;SDS011;12542;50.924;4.516;2023-04-19T04:01:02;28.65;;;19.02;;
24407;SDS011;12542;50.924;4.516;2023-04-19T04:03:27;31.20;;;18.02;;
24407;SDS011;12542;50.924;4.516;2023-04-19T04:05:53;31.75;;;18.35;;
24407;SDS011;12542;50.924;4.516;2023-04-19T04:08:19;26.95;;;17.70;;
24407;SDS011;12542;50.924;4.516;2023-04-19T04:10:47;27.00;;;18.23;;
24407;SDS011;12542;50.924;4.516;2023-04-19T04:13:13;27.98;;;18.00;;
24407;SDS011;12542;50.924;4.516;2023-04-19T04:15:38;32.33;;;19.85;;
24407;SDS011;12542;50.924;4.516;2023-04-19T04:18:04;28.85;;;19.10;;
24407;SDS011;12542;50.924;4.516;2023-04-19T04:20:30;31.00;;;19.33;;
24407;SDS011;12542;50.924;4.516;2023-04-19T04:22:56;32.53;;;19.52;;
24407;SDS011;12542;50.924;4.516;2023-04-19T04:25:22;31.00;;;19.40;;
24407;SDS011;12542;50.924;4.516;2023-04-19T04:27:51;29.90;;;19.08;;
24407;SDS011;12542;50.924;4.516;2023-04-19T04:30:16;29.50;;;19.10;;
24407;SDS011;12542;50.924;4.516;2023-04-19T04:32:42;34.28;;;19.75;;
24407;SDS011;12542;50.924;4.516;2023-04-19T04:35:11;29.42;;;19.08;;
24407;SDS011;12542;50.924;4.516;2023-04-19T04:37:37;30.42;;;18.90;;
24407;SDS011;12542;50.924;4.516;2023-04-19T04:40:04;29.80;;;20.20;;
24407;SDS011;12542;50.924;4.516;2023-04-19T04:42:30;28.95;;;19.50;;
24407;SDS011;12542;50.924;4.516;2023-04-19T04:44:57;27.92;;;18.17;;
24407;SDS011;12542;50.924;4.516;2023-04-19T04:47:31;33.35;;;20.20;;
24407;SDS011;12542;50.924;4.516;2023-04-19T04:49:58;37.33;;;20.55;;
24407;SDS011;12542;50.924;4.516;2023-04-19T04:52:24;34.30;;;20.67;;
24407;SDS011;12542;50.924;4.516;2023-04-19T04:54:50;32.67;;;20.98;;
24407;SDS011;12542;50.924;4.516;2023-04-19T04:57:16;32.67;;;20.10;;
24407;SDS011;12542;50.924;4.516;2023-04-19T04:59:44;36.58;;;20.80;;
24407;SDS011;12542;50.924;4.516;2023-04-19T05:02:12;33.63;;;20.00;;
24407;SDS011;12542;50.924;4.516;2023-04-19T05:04:40;34.10;;;20.58;;
24407;SDS011;12542;50.924;4.516;2023-04-19T05:07:06;34.50;;;20.95;;
24407;SDS011;12542;50.924;4.516;2023-04-19T05:09:32;38.95;;;22.25;;
24407;SDS011;12542;50.924;4.516;2023-04-19T05:11:58;36.45;;;20.23;;
24407;SDS011;12542;50.924;4.516;2023-04-19T05:14:24;32.88;;;19.45;;
24407;SDS011;12542;50.924;4.516;2023-04-19T05:16:49;35.20;;;21.00;;
24407;SDS011;12542;50.924;4.516;2023-04-19T05:19:15;34.58;;;21.75;;
24407;SDS011;12542;50.924;4.516;2023-04-19T05:21:41;34.17;;;19.58;;
24407;SDS011;12542;50.924;4.516;2023-04-19T05:24:09;33.80;;;20.10;;
24407;SDS011;12542;50.924;4.516;2023-04-19T05:26:34;33.17;;;20.48;;
24407;SDS011;12542;50.924;4.516;2023-04-19T05:29:00;32.33;;;20.42;;
24407;SDS011;12542;50.924;4.516;2023-04-19T05:31:26;34.38;;;21.08;;
24407;SDS011;12542;50.924;4.516;2023-04-19T05:33:51;39.50;;;21.90;;
24407;SDS011;12542;50.924;4.516;2023-04-19T05:36:17;37.67;;;21.40;;
24407;SDS011;12542;50.924;4.516;2023-04-19T05:38:43;35.85;;;22.55;;
24407;SDS011;12542;50.924;4.516;2023-04-19T05:41:09;32.90;;;20.83;;
24407;SDS011;12542;50.924;4.516;2023-04-19T05:43:36;34.78;;;20.38;;
24407;SDS011;12542;50.924;4.516;2023-04-19T05:46:04;36.10;;;21.48;;
24407;SDS011;12542;50.924;4.516;2023-04-19T05:48:30;38.00;;;22.95;;
24407;SDS011;12542;50.924;4.516;2023-04-19T05:50:55;34.78;;;22.60;;
24407;SDS011;12542;50.924;4.516;2023-04-19T05:53:22;33.25;;;22.15;;
24407;SDS011;12542;50.924;4.516;2023-04-19T05:55:47;37.78;;;21.63;;
24407;SDS011;12542;50.924;4.516;2023-04-19T05:58:14;35.42;;;21.75;;
24407;SDS011;12542;50.924;4.516;2023-04-19T06:00:40;35.15;;;21.40;;
24407;SDS011;12542;50.924;4.516;2023-04-19T06:03:06;33.72;;;22.30;;
24407;SDS011;12542;50.924;4.516;2023-04-19T06:05:32;37.47;;;22.20;;
24407;SDS011;12542;50.924;4.516;2023-04-19T06:07:58;38.35;;;20.48;;
24407;SDS011;12542;50.924;4.516;2023-04-19T06:10:24;36.65;;;20.98;;
24407;SDS011;12542;50.924;4.516;2023-04-19T06:12:50;34.10;;;21.25;;
24407;SDS011;12542;50.924;4.516;2023-04-19T06:15:16;37.58;;;21.80;;
24407;SDS011;12542;50.924;4.516;2023-04-19T06:17:42;32.13;;;19.83;;
24407;SDS011;12542;50.924;4.516;2023-04-19T06:20:09;33.85;;;21.08;;
24407;SDS011;12542;50.924;4.516;2023-04-19T06:22:45;33.03;;;20.30;;
24407;SDS011;12542;50.924;4.516;2023-04-19T06:25:12;33.15;;;20.08;;
24407;SDS011;12542;50.924;4.516;2023-04-19T06:27:39;36.20;;;20.75;;
24407;SDS011;12542;50.924;4.516;2023-04-19T06:30:05;34.72;;;21.05;;
24407;SDS011;12542;50.924;4.516;2023-04-19T06:32:31;33.20;;;19.63;;
24407;SDS011;12542;50.924;4.516;2023-04-19T06:34:57;34.90;;;21.02;;
24407;SDS011;12542;50.924;4.516;2023-04-19T06:37:23;32.50;;;19.42;;
24407;SDS011;12542;50.924;4.516;2023-04-19T06:39:51;34.80;;;20.00;;
24407;SDS011;12542;50.924;4.516;2023-04-19T06:42:17;31.08;;;20.23;;
24407;SDS011;12542;50.924;4.516;2023-04-19T06:44:44;36.20;;;18.67;;
24407;SDS011;12542;50.924;4.516;2023-04-19T06:47:12;30.08;;;18.90;;
24407;SDS011;12542;50.924;4.516;2023-04-19T06:49:38;29.33;;;19.08;;
24407;SDS011;12542;50.924;4.516;2023-04-19T06:52:04;31.60;;;19.17;;
24407;SDS011;12542;50.924;4.516;2023-04-19T06:54:29;30.13;;;19.20;;
24407;SDS011;12542;50.924;4.516;2023-04-19T06:56:55;28.02;;;18.30;;
24407;SDS011;12542;50.924;4.516;2023-04-19T06:59:22;30.98;;;18.75;;
24407;SDS011;12542;50.924;4.516;2023-04-19T07:01:52;31.90;;;18.98;;
24407;SDS011;12542;50.924;4.516;2023-04-19T07:04:21;30.52;;;18.83;;
24407;SDS011;12542;50.924;4.516;2023-04-19T07:06:47;30.85;;;17.65;;
24407;SDS011;12542;50.924;4.516;2023-04-19T07:09:16;27.20;;;17.55;;
24407;SDS011;12542;50.924;4.516;2023-04-19T07:11:42;27.52;;;17.83;;
24407;SDS011;12542;50.924;4.516;2023-04-19T07:14:08;31.27;;;18.13;;
24407;SDS011;12542;50.924;4.516;2023-04-19T07:16:33;29.77;;;15.70;;
24407;SDS011;12542;50.924;4.516;2023-04-19T07:18:59;29.27;;;16.85;;
24407;SDS011;12542;50.924;4.516;2023-04-19T07:21:25;25.70;;;15.10;;
24407;SDS011;12542;50.924;4.516;2023-04-19T07:23:52;25.98;;;16.42;;
24407;SDS011;12542;50.924;4.516;2023-04-19T07:26:18;28.58;;;16.85;;
24407;SDS011;12542;50.924;4.516;2023-04-19T07:28:44;25.50;;;17.33;;
24407;SDS011;12542;50.924;4.516;2023-04-19T07:31:13;25.85;;;17.08;;
24407;SDS011;12542;50.924;4.516;2023-04-19T07:33:40;24.50;;;15.82;;
24407;SDS011;12542;50.924;4.516;2023-04-19T07:36:07;23.05;;;15.75;;
24407;SDS011;12542;50.924;4.516;2023-04-19T07:38:33;28.15;;;15.27;;
24407;SDS011;12542;50.924;4.516;2023-04-19T07:40:58;22.92;;;14.82;;
24407;SDS011;12542;50.924;4.516;2023-04-19T07:43:24;23.38;;;14.80;;
24407;SDS011;12542;50.924;4.516;2023-04-19T07:45:51;20.98;;;14.93;;
24407;SDS011;12542;50.924;4.516;2023-04-19T07:48:17;23.35;;;14.77;;
24407;SDS011;12542;50.924;4.516;2023-04-19T07:50:42;20.58;;;12.45;;
24407;SDS011;12542;50.924;4.516;2023-04-19T07:53:08;18.50;;;12.85;;
24407;SDS011;12542;50.924;4.516;2023-04-19T07:55:34;20.73;;;12.63;;
24407;SDS011;12542;50.924;4.516;2023-04-19T07:58:00;20.02;;;12.15;;
24407;SDS011;12542;50.924;4.516;2023-04-19T08:00:26;22.10;;;12.75;;
24407;SDS011;12542;50.924;4.516;2023-04-19T08:02:54;18.33;;;11.40;;
24407;SDS011;12542;50.924;4.516;2023-04-19T08:05:21;15.65;;;10.60;;
24407;SDS011;12542;50.924;4.516;2023-04-19T08:07:47;16.70;;;11.45;;
24407;SDS011;12542;50.924;4.516;2023-04-19T08:10:15;18.05;;;11.45;;
24407;SDS011;12542;50.924;4.516;2023-04-19T08:12:42;17.73;;;11.10;;
24407;SDS011;12542;50.924;4.516;2023-04-19T08:15:08;19.75;;;11.38;;
24407;SDS011;12542;50.924;4.516;2023-04-19T08:17:34;14.23;;;8.77;;
24407;SDS011;12542;50.924;4.516;2023-04-19T08:19:59;15.63;;;9.55;;
24407;SDS011;12542;50.924;4.516;2023-04-19T08:22:25;17.67;;;9.57;;
24407;SDS011;12542;50.924;4.516;2023-04-19T08:24:51;14.57;;;9.40;;
24407;SDS011;12542;50.924;4.516;2023-04-19T08:27:17;17.33;;;10.52;;
24407;SDS011;12542;50.924;4.516;2023-04-19T08:29:43;14.93;;;9.63;;
24407;SDS011;12542;50.924;4.516;2023-04-19T08:32:10;14.00;;;10.25;;
24407;SDS011;12542;50.924;4.516;2023-04-19T08:34:36;15.13;;;9.77;;
24407;SDS011;12542;50.924;4.516;2023-04-19T08:37:04;14.75;;;8.68;;
24407;SDS011;12542;50.924;4.516;2023-04-19T08:39:31;13.30;;;9.05;;
24407;SDS011;12542;50.924;4.516;2023-04-19T08:42:00;13.90;;;8.75;;
24407;SDS011;12542;50.924;4.516;2023-04-19T08:44:32;15.48;;;10.27;;
24407;SDS011;12542;50.924;4.516;2023-04-19T08:46:58;15.60;;;9.13;;
24407;SDS011;12542;50.924;4.516;2023-04-19T08:49:25;13.07;;;9.20;;
24407;SDS011;12542;50.924;4.516;2023-04-19T08:51:52;13.93;;;9.43;;
24407;SDS011;12542;50.924;4.516;2023-04-19T08:54:20;13.45;;;8.95;;
24407;SDS011;12542;50.924;4.516;2023-04-19T08:56:46;13.30;;;9.52;;
24407;SDS011;12542;50.924;4.516;2023-04-19T08:59:12;12.15;;;9.35;;
24407;SDS011;12542;50.924;4.516;2023-04-19T09:01:38;12.70;;;9.02;;
24407;SDS011;12542;50.924;4.516;2023-04-19T09:04:05;13.38;;;9.48;;
24407;SDS011;12542;50.924;4.516;2023-04-19T09:06:37;12.25;;;7.90;;
24407;SDS011;12542;50.924;4.516;2023-04-19T09:09:17;13.10;;;8.85;;
24407;SDS011;12542;50.924;4.516;2023-04-19T09:11:47;13.90;;;7.88;;
24407;SDS011;12542;50.924;4.516;2023-04-19T09:14:14;11.27;;;8.50;;
24407;SDS011;12542;50.924;4.516;2023-04-19T09:16:41;13.45;;;8.32;;
24407;SDS011;12542;50.924;4.516;2023-04-19T09:19:07;12.98;;;7.60;;
24407;SDS011;12542;50.924;4.516;2023-04-19T09:21:35;12.63;;;7.38;;
24407;SDS011;12542;50.924;4.516;2023-04-19T09:24:01;10.15;;;7.18;;
24407;SDS011;12542;50.924;4.516;2023-04-19T09:26:27;12.63;;;7.82;;
24407;SDS011;12542;50.924;4.516;2023-04-19T09:28:57;10.85;;;8.02;;
24407;SDS011;12542;50.924;4.516;2023-04-19T09:31:26;9.48;;;6.80;;
24407;SDS011;12542;50.924;4.516;2023-04-19T09:33:55;13.63;;;8.18;;
24407;SDS011;12542;50.924;4.516;2023-04-19T09:36:31;11.75;;;7.53;;
24407;SDS011;12542;50.924;4.516;2023-04-19T09:38:57;8.70;;;6.85;;
24407;SDS011;12542;50.924;4.516;2023-04-19T09:41:26;9.45;;;7.13;;
24407;SDS011;12542;50.924;4.516;2023-04-19T09:43:52;10.05;;;7.22;;
24407;SDS011;12542;50.924;4.516;2023-04-19T09:46:32;9.55;;;6.82;;
24407;SDS011;12542;50.924;4.516;2023-04-19T09:51:41;11.23;;;7.13;;
24407;SDS011;12542;50.924;4.516;2023-04-19T09:54:08;12.48;;;7.63;;
24407;SDS011;12542;50.924;4.516;2023-04-19T09:56:36;11.50;;;7.28;;
24407;SDS011;12542;50.924;4.516;2023-04-19T09:59:02;12.35;;;8.07;;
24407;SDS011;12542;50.924;4.516;2023-04-19T10:01:34;11.60;;;7.93;;
24407;SDS011;12542;50.924;4.516;2023-04-19T10:04:05;10.10;;;7.20;;
24407;SDS011;12542;50.924;4.516;2023-04-19T10:06:34;11.95;;;7.03;;
24407;SDS011;12542;50.924;4.516;2023-04-19T10:09:00;10.65;;;7.20;;
24407;SDS011;12542;50.924;4.516;2023-04-19T10:11:37;10.20;;;6.93;;
24407;SDS011;12542;50.924;4.516;2023-04-19T10:14:06;10.88;;;6.63;;
24407;SDS011;12542;50.924;4.516;2023-04-19T10:16:36;10.40;;;6.68;;
24407;SDS011;12542;50.924;4.516;2023-04-19T10:19:10;7.72;;;5.65;;
24407;SDS011;12542;50.924;4.516;2023-04-19T10:21:36;12.52;;;6.03;;
24407;SDS011;12542;50.924;4.516;2023-04-19T10:24:07;10.73;;;6.43;;
24407;SDS011;12542;50.924;4.516;2023-04-19T10:29:53;8.68;;;6.20;;
24407;SDS011;12542;50.924;4.516;2023-04-19T10:32:19;9.07;;;6.15;;
24407;SDS011;12542;50.924;4.516;2023-04-19T10:34:45;9.57;;;5.85;;
24407;SDS011;12542;50.924;4.516;2023-04-19T10:37:14;11.23;;;6.25;;
24407;SDS011;12542;50.924;4.516;2023-04-19T10:39:41;8.52;;;5.53;;
24407;SDS011;12542;50.924;4.516;2023-04-19T10:42:09;8.60;;;5.35;;
24407;SDS011;12542;50.924;4.516;2023-04-19T10:44:35;7.53;;;5.57;;
24407;SDS011;12542;50.924;4.516;2023-04-19T10:47:01;9.68;;;6.43;;
24407;SDS011;12542;50.924;4.516;2023-04-19T10:49:29;9.32;;;6.20;;
24407;SDS011;12542;50.924;4.516;2023-04-19T10:51:55;11.65;;;6.63;;
24407;SDS011;12542;50.924;4.516;2023-04-19T10:54:35;12.02;;;6.40;;
24407;SDS011;12542;50.924;4.516;2023-04-19T10:57:03;11.15;;;6.20;;
24407;SDS011;12542;50.924;4.516;2023-04-19T10:59:34;9.35;;;6.70;;
24407;SDS011;12542;50.924;4.516;2023-04-19T11:02:01;11.23;;;7.03;;
24407;SDS011;12542;50.924;4.516;2023-04-19T11:07:14;11.27;;;6.93;;
24407;SDS011;12542;50.924;4.516;2023-04-19T11:09:45;10.77;;;6.35;;
24407;SDS011;12542;50.924;4.516;2023-04-19T11:12:15;9.73;;;6.80;;
24407;SDS011;12542;50.924;4.516;2023-04-19T11:20:01;14.63;;;7.25;;
24407;SDS011;12542;50.924;4.516;2023-04-19T11:22:43;9.40;;;7.18;;
24407;SDS011;12542;50.924;4.516;2023-04-19T11:27:43;14.32;;;6.70;;
24407;SDS011;12542;50.924;4.516;2023-04-19T11:32:36;14.63;;;7.80;;
24407;SDS011;12542;50.924;4.516;2023-04-19T11:35:08;10.55;;;7.13;;
24407;SDS011;12542;50.924;4.516;2023-04-19T11:37:34;10.10;;;7.13;;
24407;SDS011;12542;50.924;4.516;2023-04-19T11:40:02;12.45;;;6.82;;
24407;SDS011;12542;50.924;4.516;2023-04-19T11:42:29;12.02;;;7.32;;
24407;SDS011;12542;50.924;4.516;2023-04-19T11:44:55;13.20;;;7.28;;
24407;SDS011;12542;50.924;4.516;2023-04-19T11:47:22;9.38;;;6.70;;
24407;SDS011;12542;50.924;4.516;2023-04-19T11:49:48;9.18;;;6.55;;
24407;SDS011;12542;50.924;4.516;2023-04-19T11:52:19;9.38;;;6.65;;
24407;SDS011;12542;50.924;4.516;2023-04-19T11:54:46;9.55;;;6.53;;
24407;SDS011;12542;50.924;4.516;2023-04-19T11:57:12;6.80;;;5.20;;
24407;SDS011;12542;50.924;4.516;2023-04-19T11:59:38;7.63;;;5.50;;
24407;SDS011;12542;50.924;4.516;2023-04-19T12:02:07;9.27;;;6.00;;
24407;SDS011;12542;50.924;4.516;2023-04-19T12:04:34;8.73;;;5.07;;
24407;SDS011;12542;50.924;4.516;2023-04-19T12:07:01;10.13;;;5.47;;
24407;SDS011;12542;50.924;4.516;2023-04-19T12:09:28;7.50;;;5.00;;
24407;SDS011;12542;50.924;4.516;2023-04-19T12:11:54;9.05;;;5.43;;
24407;SDS011;12542;50.924;4.516;2023-04-19T12:14:21;8.30;;;4.93;;
24407;SDS011;12542;50.924;4.516;2023-04-19T12:19:45;9.48;;;5.63;;
24407;SDS011;12542;50.924;4.516;2023-04-19T12:22:12;8.75;;;5.45;;
24407;SDS011;12542;50.924;4.516;2023-04-19T12:24:39;7.47;;;5.57;;
24407;SDS011;12542;50.924;4.516;2023-04-19T12:27:06;8.88;;;4.45;;
24407;SDS011;12542;50.924;4.516;2023-04-19T12:29:32;8.80;;;5.47;;
24407;SDS011;12542;50.924;4.516;2023-04-19T12:31:59;8.02;;;4.90;;
24407;SDS011;12542;50.924;4.516;2023-04-19T12:34:25;13.80;;;5.22;;
24407;SDS011;12542;50.924;4.516;2023-04-19T12:36:52;8.90;;;4.95;;
24407;SDS011;12542;50.924;4.516;2023-04-19T12:39:18;9.52;;;4.82;;
24407;SDS011;12542;50.924;4.516;2023-04-19T12:41:46;9.07;;;4.80;;
24407;SDS011;12542;50.924;4.516;2023-04-19T12:44:13;7.07;;;4.63;;
24407;SDS011;12542;50.924;4.516;2023-04-19T12:46:39;7.13;;;4.35;;
24407;SDS011;12542;50.924;4.516;2023-04-19T12:49:05;8.48;;;5.00;;
24407;SDS011;12542;50.924;4.516;2023-04-19T12:51:31;8.30;;;4.35;;
24407;SDS011;12542;50.924;4.516;2023-04-19T12:53:57;7.75;;;4.10;;
24407;SDS011;12542;50.924;4.516;2023-04-19T12:56:22;7.03;;;3.78;;
24407;SDS011;12542;50.924;4.516;2023-04-19T12:58:48;6.30;;;4.15;;
24407;SDS011;12542;50.924;4.516;2023-04-19T13:01:14;8.40;;;4.00;;
24407;SDS011;12542;50.924;4.516;2023-04-19T13:03:40;6.20;;;3.70;;
24407;SDS011;12542;50.924;4.516;2023-04-19T13:06:05;5.93;;;3.53;;
24407;SDS011;12542;50.924;4.516;2023-04-19T13:08:31;8.18;;;3.42;;
24407;SDS011;12542;50.924;4.516;2023-04-19T13:10:57;11.00;;;4.03;;
24407;SDS011;12542;50.924;4.516;2023-04-19T13:13:24;5.78;;;3.30;;
24407;SDS011;12542;50.924;4.516;2023-04-19T13:15:50;6.88;;;3.63;;
24407;SDS011;12542;50.924;4.516;2023-04-19T13:18:16;7.88;;;3.58;;
24407;SDS011;12542;50.924;4.516;2023-04-19T13:20:42;5.35;;;3.40;;
24407;SDS011;12542;50.924;4.516;2023-04-19T13:23:08;6.97;;;3.53;;
24407;SDS011;12542;50.924;4.516;2023-04-19T13:25:34;6.10;;;3.65;;
24407;SDS011;12542;50.924;4.516;2023-04-19T13:28:00;5.60;;;2.70;;
24407;SDS011;12542;50.924;4.516;2023-04-19T13:30:25;5.13;;;2.72;;
24407;SDS011;12542;50.924;4.516;2023-04-19T13:32:51;4.90;;;2.58;;
24407;SDS011;12542;50.924;4.516;2023-04-19T13:35:17;4.38;;;2.85;;
24407;SDS011;12542;50.924;4.516;2023-04-19T13:37:42;7.35;;;3.15;;
24407;SDS011;12542;50.924;4.516;2023-04-19T13:40:11;6.95;;;2.95;;
24407;SDS011;12542;50.924;4.516;2023-04-19T13:42:36;8.68;;;2.70;;
24407;SDS011;12542;50.924;4.516;2023-04-19T13:45:02;5.28;;;2.70;;
24407;SDS011;12542;50.924;4.516;2023-04-19T13:47:28;5.13;;;2.67;;
24407;SDS011;12542;50.924;4.516;2023-04-19T13:49:54;3.75;;;2.33;;
24407;SDS011;12542;50.924;4.516;2023-04-19T13:52:20;3.30;;;2.53;;
24407;SDS011;12542;50.924;4.516;2023-04-19T13:54:47;3.47;;;2.30;;
24407;SDS011;12542;50.924;4.516;2023-04-19T13:57:13;4.22;;;2.35;;
24407;SDS011;12542;50.924;4.516;2023-04-19T13:59:39;3.70;;;2.17;;
24407;SDS011;12542;50.924;4.516;2023-04-19T14:02:05;3.13;;;1.88;;
24407;SDS011;12542;50.924;4.516;2023-04-19T14:04:31;5.00;;;1.70;;
24407;SDS011;12542;50.924;4.516;2023-04-19T14:06:57;5.03;;;1.90;;
24407;SDS011;12542;50.924;4.516;2023-04-19T14:09:23;5.35;;;1.92;;
24407;SDS011;12542;50.924;4.516;2023-04-19T14:11:49;3.95;;;1.40;;
24407;SDS011;12542;50.924;4.516;2023-04-19T14:14:15;2.85;;;1.38;;
24407;SDS011;12542;50.924;4.516;2023-04-19T14:16:42;3.70;;;1.45;;
24407;SDS011;12542;50.924;4.516;2023-04-19T14:19:07;4.78;;;2.30;;
24407;SDS011;12542;50.924;4.516;2023-04-19T14:21:33;6.63;;;1.80;;
24407;SDS011;12542;50.924;4.516;2023-04-19T14:23:59;4.93;;;2.22;;
24407;SDS011;12542;50.924;4.516;2023-04-19T14:26:25;11.27;;;1.83;;
24407;SDS011;12542;50.924;4.516;2023-04-19T14:28:50;2.95;;;1.95;;
24407;SDS011;12542;50.924;4.516;2023-04-19T14:31:16;3.28;;;1.67;;
24407;SDS011;12542;50.924;4.516;2023-04-19T14:33:42;3.05;;;1.88;;
24407;SDS011;12542;50.924;4.516;2023-04-19T14:36:08;4.32;;;2.00;;
24407;SDS011;12542;50.924;4.516;2023-04-19T14:38:34;3.88;;;2.30;;
24407;SDS011;12542;50.924;4.516;2023-04-19T14:41:00;3.83;;;1.70;;
24407;SDS011;12542;50.924;4.516;2023-04-19T14:43:29;8.07;;;2.40;;
24407;SDS011;12542;50.924;4.516;2023-04-19T14:45:55;12.00;;;2.40;;
24407;SDS011;12542;50.924;4.516;2023-04-19T14:48:21;3.08;;;2.00;;
24407;SDS011;12542;50.924;4.516;2023-04-19T14:50:47;3.95;;;2.08;;